ABY647 LSZH-EDDL
Flight info
| Callsign | ABY647 |
|---|---|
| Flight time | N/A |
| Altitude | 32000 |
| Route | DEGES5L DEGES Z1 ETAGO DCT HAREM/N0456F330 DCT LOHRE/N0458F320 Z850 ADEMI T854 DOMUX DOMUX1A |
| Aircraft | A320/M-VGDW/C |
Departure
| Time | 2026-05-05 19:58 |
|---|---|
| Airport | Zürich Airport (LSZH) |
Arrival
| Time | N/A |
|---|---|
| Airport | Düsseldorf Airport (EDDL) |
| Time | Latitude | Longitude | Altitude | Speed | Heading |
|---|---|---|---|---|---|
| 2026-05-05 19:34 | 47.46141 | 8.55859 | 1397 ft | 0 kts | 276° |
| 2026-05-05 19:48 | 47.46139 | 8.55879 | 1405 ft | 2 kts | 276° |
| 2026-05-05 19:49 | 47.46138 | 8.55904 | 1402 ft | 2 kts | 276° |
| 2026-05-05 19:49 | 47.46136 | 8.55929 | 1402 ft | 2 kts | 276° |
| 2026-05-05 19:49 | 47.46134 | 8.55953 | 1398 ft | 2 kts | 276° |
| 2026-05-05 19:49 | 47.46130 | 8.55974 | 1401 ft | 2 kts | 330° |
| 2026-05-05 19:50 | 47.46123 | 8.55979 | 1404 ft | 0 kts | 1° |
| 2026-05-05 19:52 | 47.46137 | 8.55991 | 1407 ft | 6 kts | 37° |
| 2026-05-05 19:53 | 47.46149 | 8.56033 | 1410 ft | 3 kts | 81° |
| 2026-05-05 19:53 | 47.46137 | 8.56081 | 1405 ft | 12 kts | 126° |
| 2026-05-05 19:53 | 47.46099 | 8.56141 | 1402 ft | 4 kts | 137° |
| 2026-05-05 19:53 | 47.46080 | 8.56168 | 1410 ft | 3 kts | 136° |
| 2026-05-05 19:54 | 47.46067 | 8.56185 | 1401 ft | 0 kts | 136° |
| 2026-05-05 19:54 | 47.46052 | 8.56209 | 1404 ft | 7 kts | 132° |
| 2026-05-05 19:54 | 47.46040 | 8.56279 | 1401 ft | 6 kts | 74° |
| 2026-05-05 19:54 | 47.46066 | 8.56327 | 1406 ft | 9 kts | 42° |
| 2026-05-05 19:55 | 47.46164 | 8.56351 | 1401 ft | 19 kts | 356° |
| 2026-05-05 19:55 | 47.46225 | 8.56318 | 1400 ft | 8 kts | 316° |
| 2026-05-05 19:55 | 47.46227 | 8.56315 | 1401 ft | 0 kts | 316° |
| 2026-05-05 19:57 | 47.46386 | 8.56098 | 1402 ft | 70 kts | 316° |
| 2026-05-05 19:57 | 47.46894 | 8.55403 | 1401 ft | 130 kts | 317° |
| 2026-05-05 19:57 | 47.47679 | 8.54327 | 1432 ft | 173 kts | 317° |
| 2026-05-05 19:58 | 47.48558 | 8.53159 | 2168 ft | 169 kts | 316° |
| 2026-05-05 19:58 | 47.49437 | 8.52012 | 2925 ft | 169 kts | 320° |
| 2026-05-05 19:58 | 47.50456 | 8.51133 | 3597 ft | 170 kts | 326° |
| 2026-05-05 19:58 | 47.51486 | 8.50290 | 4230 ft | 169 kts | 324° |
| 2026-05-05 19:59 | 47.52426 | 8.49291 | 4795 ft | 167 kts | 308° |
| 2026-05-05 19:59 | 47.53133 | 8.47843 | 5081 ft | 182 kts | 290° |
| 2026-05-05 19:59 | 47.53504 | 8.46001 | 5450 ft | 190 kts | 272° |
| 2026-05-05 19:59 | 47.53240 | 8.44141 | 6013 ft | 189 kts | 237° |
| 2026-05-05 20:00 | 47.52281 | 8.42787 | 6471 ft | 202 kts | 211° |
| 2026-05-05 20:00 | 47.50807 | 8.42464 | 6667 ft | 238 kts | 173° |
| 2026-05-05 20:00 | 47.49280 | 8.43755 | 6997 ft | 277 kts | 136° |
| 2026-05-05 20:00 | 47.48360 | 8.46359 | 7666 ft | 294 kts | 109° |
| 2026-05-05 20:01 | 47.47982 | 8.49357 | 8529 ft | 299 kts | 99° |
| 2026-05-05 20:01 | 47.47822 | 8.52430 | 9441 ft | 301 kts | 96° |
| 2026-05-05 20:01 | 47.47701 | 8.55527 | 10255 ft | 303 kts | 97° |
| 2026-05-05 20:01 | 47.47539 | 8.58650 | 10989 ft | 307 kts | 98° |
| 2026-05-05 20:02 | 47.47317 | 8.61811 | 11676 ft | 314 kts | 100° |
| 2026-05-05 20:02 | 47.47035 | 8.65083 | 11885 ft | 337 kts | 101° |
| 2026-05-05 20:02 | 47.46690 | 8.68621 | 12045 ft | 360 kts | 101° |
| 2026-05-05 20:02 | 47.46301 | 8.72355 | 12203 ft | 380 kts | 101° |
| 2026-05-05 20:03 | 47.45885 | 8.76284 | 12694 ft | 389 kts | 101° |
| 2026-05-05 20:03 | 47.45466 | 8.80265 | 13337 ft | 394 kts | 101° |
| 2026-05-05 20:03 | 47.45046 | 8.84281 | 13965 ft | 398 kts | 101° |
| 2026-05-05 20:03 | 47.44623 | 8.88345 | 14559 ft | 401 kts | 101° |
| 2026-05-05 20:04 | 47.44199 | 8.92423 | 15168 ft | 403 kts | 101° |
| 2026-05-05 20:04 | 47.43771 | 8.96532 | 15756 ft | 406 kts | 101° |
| 2026-05-05 20:04 | 47.43338 | 9.00667 | 16329 ft | 408 kts | 101° |
| 2026-05-05 20:04 | 47.42900 | 9.04814 | 16893 ft | 411 kts | 101° |
| 2026-05-05 20:05 | 47.42455 | 9.08990 | 17460 ft | 413 kts | 101° |
| 2026-05-05 20:05 | 47.42031 | 9.13200 | 18018 ft | 417 kts | 98° |
| 2026-05-05 20:05 | 47.41991 | 9.17500 | 18507 ft | 422 kts | 87° |
| 2026-05-05 20:05 | 47.42481 | 9.21798 | 18923 ft | 428 kts | 76° |
| 2026-05-05 20:06 | 47.43519 | 9.25939 | 19352 ft | 433 kts | 65° |
| 2026-05-05 20:06 | 47.44995 | 9.29841 | 19791 ft | 437 kts | 60° |
| 2026-05-05 20:06 | 47.46574 | 9.33629 | 20212 ft | 441 kts | 55° |
| 2026-05-05 20:06 | 47.48553 | 9.37118 | 20624 ft | 445 kts | 45° |
| 2026-05-05 20:07 | 47.50919 | 9.40077 | 21042 ft | 448 kts | 34° |
| 2026-05-05 20:07 | 47.53610 | 9.42402 | 21443 ft | 450 kts | 24° |
| 2026-05-05 20:07 | 47.56549 | 9.44031 | 21842 ft | 452 kts | 14° |
| 2026-05-05 20:07 | 47.59660 | 9.45009 | 22238 ft | 453 kts | 5° |
| 2026-05-05 20:08 | 47.62765 | 9.45345 | 22620 ft | 454 kts | 360° |
| 2026-05-05 20:08 | 47.65927 | 9.45519 | 23041 ft | 456 kts | 0° |
| 2026-05-05 20:08 | 47.69104 | 9.45695 | 23440 ft | 458 kts | 0° |
| 2026-05-05 20:08 | 47.72303 | 9.45871 | 23773 ft | 461 kts | 0° |
| 2026-05-05 20:09 | 47.75511 | 9.46044 | 23893 ft | 461 kts | 0° |
| 2026-05-05 20:09 | 47.78723 | 9.46217 | 23999 ft | 463 kts | 0° |
| 2026-05-05 20:09 | 47.81949 | 9.46365 | 24341 ft | 465 kts | 359° |
| 2026-05-05 20:09 | 47.85195 | 9.46415 | 24697 ft | 466 kts | 359° |
| 2026-05-05 20:10 | 47.88439 | 9.46391 | 25043 ft | 467 kts | 358° |
| 2026-05-05 20:10 | 47.91694 | 9.46331 | 25364 ft | 469 kts | 358° |
| 2026-05-05 20:10 | 47.94971 | 9.46268 | 25671 ft | 471 kts | 358° |
| 2026-05-05 20:10 | 47.98255 | 9.46220 | 25963 ft | 473 kts | 358° |
| 2026-05-05 20:11 | 48.01558 | 9.46196 | 26245 ft | 476 kts | 358° |
| 2026-05-05 20:11 | 48.04872 | 9.46186 | 26537 ft | 477 kts | 358° |
| 2026-05-05 20:11 | 48.08192 | 9.46186 | 26851 ft | 479 kts | 358° |
| 2026-05-05 20:11 | 48.11535 | 9.46188 | 27136 ft | 480 kts | 358° |
| 2026-05-05 20:12 | 48.14885 | 9.46190 | 27410 ft | 482 kts | 358° |
| 2026-05-05 20:12 | 48.18243 | 9.46190 | 27731 ft | 482 kts | 358° |